x

Mount Louis (45138) Wave Buoy

10:00pm - Sun 24th Sep 2017 All times are UTC.

  • Sig Wave height 1.6ft
  • Peak Period 4s
  • Wind
    4mph, 7mph gusts
  • Sea Temp 54°f
  • Air Temp 54°f
  • Sea Pressure 1017.6mb

More Historic Weather Station data

Upgrade to MSW Pro to gain access to the past 30 days of data for over 8000 Wavebouys and Weather Stations around the globe.

Join

Comparision Forecast

View Surf forecast
   
Sun 09/24 10:00pm 1.6ft 4s 4 7 mph 1017.6mb 54f 54f
9:00pm 1.6ft 4s 7 7 mph 1016.7mb 54f 54f
8:00pm 1.3ft 4s 7 7 mph 1016.3mb 54f 54f
7:00pm 1.3ft 11s 9 9 mph 1015.9mb 54f 54f
6:00pm 1.3ft 12s 7 9 mph 1015.3mb 54f 55f
5:00pm 1.3ft 12s 4 4 mph 1015mb 54f 55f
4:00pm 1.3ft 11s 7 9 mph 1015mb 54f 55f
3:00pm 1ft 11s 9 9 mph 1015.2mb 54f 55f
2:00pm 1ft 12s 9 9 mph 1015.5mb 54f 55f
1:00pm 0.7ft 11s 9 9 mph 1015.8mb 54f 55f
12:00pm 1ft 10s 11 13 mph 1016.1mb 54f 55f
11:00am 1ft 11s 9 9 mph 1016.4mb 54f 54f
10:00am 1ft 11s 9 9 mph 1016.7mb 54f 54f
9:00am 1ft 11s 11 13 mph 1016.8mb 54f 55f
8:00am 1ft 12s 7 9 mph 1016.6mb 54f 56f
7:00am 1ft 10s 11 11 mph 1016.1mb 54f 57f
6:00am 1ft 11s 9 9 mph 1016.1mb 54f 56f
5:00am 1ft 5s 4 7 mph 1017mb 54f 56f
4:00am 1ft 4s 7 7 mph 1017.1mb 54f 57f
3:00am 1ft 12s 7 7 mph 1017.5mb 54f 57f
2:00am 1.3ft 4s 7 7 mph 1017.9mb 54f 57f
1:00am 1.3ft 5s 7 9 mph 1017.6mb 54f 56f
12:00am 1.6ft 5s 7 7 mph 1016.7mb 54f 58f
Sat 09/23 11:00pm 1.6ft 5s 9 11 mph 1016.2mb 54f 59f
10:00pm 2ft 5s 4 7 mph 1015.7mb 54f 56f
9:00pm 2.5ft 5s 9 9 mph 1014.4mb 54f 57f
8:00pm 2.5ft 5s 9 11 mph 1013.9mb 54f 57f
7:00pm 2.5ft 5s 11 13 mph 1013.7mb 54f 57f
6:00pm 3ft 6s 11 13 mph 1013mb 54f 58f
5:00pm 3.5ft 6s 13 16 mph 1012.3mb 54f 58f
4:00pm 4.5ft 5s 18 22 mph 1011.6mb 54f 60f
3:00pm 5.5ft 6s 16 18 mph 1011.2mb 54f 56f
2:00pm 6.5ft 5s 20 25 mph 1010.3mb 54f 57f
1:00pm 5ft 5s 27 36 mph 1008.9mb 54f 59f
12:00pm 5ft 5s 25 29 mph 1007.3mb 54f 58f
11:00am 3.5ft 4s 25 29 mph 1007.2mb 55f 59f
10:00am 3ft 4s 20 25 mph 1007.2mb 55f 58f
9:00am 1.3ft  -  16 20 mph 1007.6mb 55f 58f
8:00am 1ft 11s 16 18 mph 1008.9mb 55f 59f
7:00am 0.7ft 12s 13 16 mph 1010mb 55f 59f
6:00am 1ft 12s 7 7 mph 1011.2mb 55f 56f
5:00am 1ft 11s 7 9 mph 1012.6mb 55f 56f
4:00am 0.7ft 11s 9 9 mph 1013.2mb 55f 56f
3:00am 0.7ft 12s 7 9 mph 1014.8mb 55f 56f
2:00am 0.7ft 12s 2 4 mph 1016.1mb 55f 58f
1:00am 0.7ft 12s 7 7 mph 1015.9mb 55f 56f
12:00am 0.7ft 11s 4 4 mph 1016.2mb 55f 56f
Fri 09/22 11:00pm 0.7ft 11s 4 7 mph 1016.4mb 55f 56f
10:00pm 1ft 11s 7 9 mph 1016.5mb 55f 57f
9:00pm 0.7ft 13s 7 9 mph 1017.4mb 55f 56f
8:00pm 1ft 14s 9 11 mph 1017.8mb 55f 56f
7:00pm 1ft 3s 9 9 mph 1018.7mb 55f 57f
6:00pm 1ft 3s 9 9 mph 1019.5mb 55f 56f
5:00pm 1ft 3s 11 13 mph 1020.2mb 55f 56f
4:00pm 1ft 3s 11 11 mph 1020.6mb 55f 55f
3:00pm 1ft 3s 11 13 mph 1021.1mb 55f 55f
2:00pm 1.3ft 3s 9 11 mph 1021.3mb 54f 55f
1:00pm 1.3ft 3s 9 11 mph 1021.5mb 54f 55f
12:00pm 1ft 7s 11 13 mph 1021.7mb 54f 55f
11:00am 0.7ft 12s 11 13 mph 1021.4mb 54f 56f
10:00am 0.7ft 7s 9 11 mph 1021mb 54f 55f
9:00am 0.7ft 7s 4 4 mph 1021mb 54f 55f
8:00am 0.7ft 7s 2 4 mph 1020.6mb 54f 55f
7:00am 0.7ft 7s 4 7 mph 1020.6mb 54f 54f
6:00am 0.7ft 6s 9 11 mph 1021.1mb 54f 55f
5:00am 0.7ft 11s 7 7 mph 1021.3mb 55f 54f
4:00am 0.7ft 7s 7 7 mph 1021.8mb 54f 54f
3:00am 0.7ft 7s 9 9 mph 1021.8mb 55f 55f
2:00am 0.7ft 7s 9 9 mph 1022mb 55f 55f
1:00am 0.7ft 7s 4 4 mph 1022.5mb 55f 55f
12:00am 0.7ft 7s 7 7 mph 1022.5mb 55f 54f
Thu 09/21 11:00pm 1ft 7s 7 9 mph 1022.1mb 55f 54f
10:00pm 1ft 7s 9 11 mph 1022.2mb 55f 54f
9:00pm 1.3ft 8s 9 9 mph 1022.2mb 55f 54f
8:00pm 1.3ft 3s 4 7 mph 1022.5mb 55f 54f
7:00pm 1.3ft 4s 7 9 mph 1022.7mb 56f 54f
4:00pm 1.6ft 4s 2 4 mph 1024.4mb 55f 53f
3:00pm 1.6ft 4s 2 2 mph 1024.7mb 54f 53f
2:00pm 1.6ft 4s 7 9 mph 1024.5mb 54f 53f
1:00pm 1.6ft 4s 9 9 mph 1023.9mb 53f 53f
12:00pm 1.6ft 4s 9 11 mph 1023.7mb 53f 53f
11:00am 1.3ft 3s 7 9 mph 1023.4mb 53f 53f
10:00am 1.6ft 3s 11 13 mph 1022.4mb 53f 53f
9:00am 1.3ft 3s 11 13 mph 1021.9mb 53f 54f
8:00am 1ft  -  11 13 mph 1021.5mb 53f 54f
7:00am 0.7ft 10s 9 9 mph 1020.8mb 53f 54f
6:00am 1ft 3s 7 7 mph 1020.4mb 53f 55f
5:00am 1ft 3s 7 7 mph 1020.4mb 53f 56f
4:00am 0.7ft 9s 7 9 mph 1020mb 53f 55f
3:00am 0.7ft 3s 9 11 mph 1019.7mb 54f 56f
2:00am 1ft 3s 11 11 mph 1019.4mb 54f 56f
1:00am 1ft 2s 11 16 mph 1019.5mb 54f 56f
12:00am 1.3ft 3s 13 16 mph 1018.7mb 54f 56f